Ana Sayfa
METAR-TAF:

METAR-TAF

Havaalanları :

Concordia, Kansas, Amerika Birleşik Devletleri

Enlem: 39-33-05N, Boylam: 097-39-02W, yükseklik: 453 m

Güncel hava durumu gözlemi

Rapor saat 05:55 UTC de 10 dakika önce yapıldı.
Sakin rüzgar
Sıcaklık 17°C
Nem 68%
Basınç 1010 hPa
Görüş mesafesi: 16.1 km
Açık gökyüzü

METAR: KCNK 270555Z AUTO 00000KT 10SM CLR 17/11 A2983 RMK AO2 SLP089 T01670106 10261 20156 402780150 50013

Saat: 01:05 (06:05 UTC)


TAF: eksik

4.000'den fazla havaalanı için hava durumu gözlemleri ve tahminleri (METAR ve TAF raporları).

Kullanılabilir istasyonlar harita üzerinde sarı ve kırmızı noktalarla gösterilir.

İstasyonun adını görmek için fareyi noktanın üzerinde gezdirin.

Sonrasında hava gözlem ve tahminlerini görmek için tıklayın.

Haritayı değiştirmek için: yaklaştırmak için siyah artı işaretli yeşil düğmeye ve uzaklaştırmak için de eksi işaretli düğmeye hızla tıklayın; bitişik haritalar için yeşil okları kullanın.


METAR-TAF: